Time;durP1;ratioP1;P1;durP2;ratioP2;P2;SDS_P1;SDS_P2;PMS_P1;PMS_P2;Temp;Humidity;BMP_temperature;BMP_pressure;BME280_temperature;BME280_humidity;BME280_pressure;Samples;Min_cycle;Max_cycle;Signal;HPM_P1;HPM_P2
2022/10/11 00:00:25;;;;;;;7.40;2.10;;;;;;;;;;5070978;28;20045;-62
2022/10/11 00:02:51;;;;;;;11.52;2.10;;;;;;;;;;5070560;28;20055;-62
2022/10/11 00:05:17;;;;;;;5.93;1.90;;;;;;;;;;5069875;28;20125;-63
2022/10/11 00:07:43;;;;;;;10.32;2.15;;;;;;;;;;5064502;28;20055;-63
2022/10/11 00:10:10;;;;;;;13.88;2.55;;;;;;;;;;5071226;28;20040;-62
2022/10/11 00:12:36;;;;;;;7.95;1.92;;;;;;;;;;5063980;28;20045;-63
2022/10/11 00:15:03;;;;;;;8.98;2.13;;;;;;;;;;5069794;28;20492;-63
2022/10/11 00:17:29;;;;;;;12.05;2.33;;;;;;;;;;5070288;28;20123;-63
2022/10/11 00:19:55;;;;;;;7.50;2.33;;;;;;;;;;5070341;28;20120;-63
2022/10/11 00:22:21;;;;;;;11.07;2.65;;;;;;;;;;5071719;28;20542;-63
2022/10/11 00:24:47;;;;;;;9.02;2.33;;;;;;;;;;5070213;28;20036;-63
2022/10/11 00:27:13;;;;;;;13.07;2.10;;;;;;;;;;5069997;28;20045;-63
2022/10/11 00:29:39;;;;;;;7.85;2.45;;;;;;;;;;5070242;28;20032;-63
2022/10/11 00:32:05;;;;;;;8.07;2.03;;;;;;;;;;5052764;28;20492;-63
2022/10/11 00:34:31;;;;;;;9.40;2.33;;;;;;;;;;5071515;28;20406;-63
2022/10/11 00:36:57;;;;;;;9.05;2.33;;;;;;;;;;5070385;28;20890;-63
2022/10/11 00:39:23;;;;;;;8.75;2.13;;;;;;;;;;5072177;28;20041;-63
2022/10/11 00:41:49;;;;;;;12.77;2.38;;;;;;;;;;5069460;28;20040;-63
2022/10/11 00:44:23;;;;;;;7.43;1.73;;;;;;;;;;5071273;28;20376;-63
2022/10/11 00:47:13;;;;;;;10.38;2.30;;;;;;;;;;5069465;28;20036;-62
2022/10/11 00:49:45;;;;;;;7.63;1.85;;;;;;;;;;5049369;28;20041;-62
2022/10/11 00:52:22;;;;;;;9.05;1.88;;;;;;;;;;5070903;28;20116;-63
2022/10/11 00:54:49;;;;;;;9.60;2.15;;;;;;;;;;5069090;28;20089;-63
2022/10/11 00:57:19;;;;;;;9.95;2.20;;;;;;;;;;5072686;28;20112;-63
2022/10/11 00:59:48;;;;;;;14.10;2.65;;;;;;;;;;5065778;28;20056;-63
2022/10/11 01:02:14;;;;;;;10.88;1.88;;;;;;;;;;5050142;28;20032;-63
2022/10/11 01:04:41;;;;;;;8.98;1.63;;;;;;;;;;5067720;28;20417;-64
2022/10/11 01:07:08;;;;;;;9.73;2.20;;;;;;;;;;5068749;28;20045;-63
2022/10/11 01:09:34;;;;;;;7.85;2.08;;;;;;;;;;5066431;28;20199;-62
2022/10/11 01:12:02;;;;;;;10.45;2.08;;;;;;;;;;5068355;28;20398;-63
2022/10/11 01:14:38;;;;;;;11.18;2.40;;;;;;;;;;5068240;28;20036;-64
2022/10/11 01:17:04;;;;;;;9.48;2.03;;;;;;;;;;5071828;28;20044;-63
2022/10/11 01:19:49;;;;;;;6.22;1.80;;;;;;;;;;5063814;28;20036;-62
2022/10/11 01:22:21;;;;;;;7.25;2.30;;;;;;;;;;5068886;28;20368;-64
2022/10/11 01:25:06;;;;;;;9.45;2.20;;;;;;;;;;5069459;28;20044;-63
2022/10/11 01:27:35;;;;;;;8.27;1.92;;;;;;;;;;5070472;28;20116;-63
2022/10/11 01:30:36;;;;;;;8.32;1.80;;;;;;;;;;5068404;28;20094;-63
2022/10/11 01:33:17;;;;;;;8.38;1.70;;;;;;;;;;5068366;28;20098;-63
2022/10/11 01:35:43;;;;;;;8.60;1.52;;;;;;;;;;5063000;28;20052;-64
2022/10/11 01:38:10;;;;;;;5.50;1.92;;;;;;;;;;5069632;28;20398;-63
2022/10/11 01:40:41;;;;;;;6.47;1.92;;;;;;;;;;5070019;28;20044;-63
2022/10/11 01:43:08;;;;;;;6.30;1.80;;;;;;;;;;5066966;28;20040;-63
2022/10/11 01:45:36;;;;;;;7.68;2.17;;;;;;;;;;5069927;28;20526;-63
2022/10/11 01:48:20;;;;;;;7.88;1.90;;;;;;;;;;5068354;28;20079;-63
2022/10/11 01:51:04;;;;;;;6.75;1.77;;;;;;;;;;5068411;28;20043;-63
2022/10/11 01:53:30;;;;;;;6.88;1.60;;;;;;;;;;5070043;28;20032;-63
2022/10/11 01:56:15;;;;;;;6.25;1.73;;;;;;;;;;5068849;28;20486;-63
2022/10/11 01:58:44;;;;;;;6.53;1.85;;;;;;;;;;5064073;28;20132;-63
2022/10/11 02:01:10;;;;;;;11.25;2.00;;;;;;;;;;5069194;28;20463;-63
2022/10/11 02:03:36;;;;;;;7.47;1.80;;;;;;;;;;5071770;28;20040;-63
2022/10/11 02:06:10;;;;;;;6.43;1.80;;;;;;;;;;5063911;28;20032;-62
2022/10/11 02:08:56;;;;;;;6.30;2.00;;;;;;;;;;5062142;28;20033;-63
2022/10/11 02:11:24;;;;;;;10.77;1.92;;;;;;;;;;5051990;28;20598;-62
2022/10/11 02:13:56;;;;;;;6.32;1.50;;;;;;;;;;5067474;28;20044;-63
2022/10/11 02:16:26;;;;;;;8.52;1.80;;;;;;;;;;5070910;28;20458;-62
2022/10/11 02:18:53;;;;;;;9.35;2.15;;;;;;;;;;5065136;28;20049;-63
2022/10/11 02:21:21;;;;;;;4.43;1.75;;;;;;;;;;5068442;28;20064;-63
2022/10/11 02:23:48;;;;;;;4.47;1.70;;;;;;;;;;5067606;28;20043;-63
2022/10/11 02:26:15;;;;;;;5.97;1.50;;;;;;;;;;5053274;28;20045;-63
2022/10/11 02:28:43;;;;;;;4.20;1.35;;;;;;;;;;5068663;28;20399;-64
2022/10/11 02:31:09;;;;;;;3.70;1.25;;;;;;;;;;5069309;28;20064;-62
2022/10/11 02:33:42;;;;;;;4.30;1.40;;;;;;;;;;5069008;28;20056;-63
2022/10/11 02:36:14;;;;;;;7.05;1.63;;;;;;;;;;5066205;28;20507;-64
2022/10/11 02:38:44;;;;;;;6.05;1.50;;;;;;;;;;5070932;28;20048;-63
2022/10/11 02:41:22;;;;;;;5.65;1.33;;;;;;;;;;5074568;28;20045;-63
2022/10/11 02:43:56;;;;;;;6.63;1.50;;;;;;;;;;5073204;28;20187;-63
2022/10/11 02:46:23;;;;;;;10.50;2.10;;;;;;;;;;5073628;28;20052;-63
2022/10/11 02:48:50;;;;;;;7.95;1.90;;;;;;;;;;5074833;28;20510;-63
2022/10/11 02:51:17;;;;;;;10.35;1.70;;;;;;;;;;5068986;28;20139;-63
2022/10/11 02:53:43;;;;;;;4.53;0.82;;;;;;;;;;5072028;28;20047;-63
2022/10/11 02:56:09;;;;;;;5.55;1.40;;;;;;;;;;5073251;28;20041;-63
2022/10/11 02:58:35;;;;;;;3.72;1.58;;;;;;;;;;5072089;28;20391;-63
2022/10/11 03:01:01;;;;;;;4.97;1.65;;;;;;;;;;5072553;28;20040;-63
2022/10/11 03:03:27;;;;;;;5.68;1.70;;;;;;;;;;5074251;28;20066;-64
2022/10/11 03:06:00;;;;;;;5.95;1.80;;;;;;;;;;5071120;28;20043;-63
2022/10/11 03:08:26;;;;;;;4.47;1.63;;;;;;;;;;5070925;28;20064;-62
2022/10/11 03:10:52;;;;;;;5.90;1.50;;;;;;;;;;5072748;28;20491;-63
2022/10/11 03:13:18;;;;;;;2.92;1.20;;;;;;;;;;5073108;28;20049;-63
2022/10/11 03:15:47;;;;;;;7.50;1.48;;;;;;;;;;5072077;28;20040;-63
2022/10/11 03:18:13;;;;;;;7.45;1.60;;;;;;;;;;5071374;28;20040;-63
2022/10/11 03:20:39;;;;;;;3.13;1.35;;;;;;;;;;5070544;28;20047;-63
2022/10/11 03:23:05;;;;;;;7.55;2.50;;;;;;;;;;5071440;28;20052;-63
2022/10/11 03:25:31;;;;;;;5.10;2.05;;;;;;;;;;5071097;28;20045;-62
2022/10/11 03:27:57;;;;;;;6.43;1.58;;;;;;;;;;5073551;28;20041;-63
2022/10/11 03:30:24;;;;;;;5.72;1.88;;;;;;;;;;5071961;28;20078;-63
2022/10/11 03:32:50;;;;;;;7.75;1.95;;;;;;;;;;5070196;28;20048;-63
2022/10/11 03:35:16;;;;;;;10.25;2.10;;;;;;;;;;5071056;28;20045;-62
2022/10/11 03:37:42;;;;;;;5.00;1.45;;;;;;;;;;5072449;28;20510;-62
2022/10/11 03:40:09;;;;;;;2.40;0.65;;;;;;;;;;5070390;28;20048;-63
2022/10/11 03:42:35;;;;;;;2.85;1.02;;;;;;;;;;5065466;28;20111;-63
2022/10/11 03:45:03;;;;;;;2.15;0.90;;;;;;;;;;5067997;28;20064;-63
2022/10/11 03:47:29;;;;;;;2.75;1.20;;;;;;;;;;5070526;28;20032;-63
2022/10/11 03:49:55;;;;;;;7.22;1.67;;;;;;;;;;5068878;28;20578;-63
2022/10/11 03:52:21;;;;;;;5.13;1.70;;;;;;;;;;5072608;28;20131;-64
2022/10/11 03:54:47;;;;;;;4.35;1.60;;;;;;;;;;5072654;28;20066;-63
2022/10/11 03:57:13;;;;;;;5.88;1.90;;;;;;;;;;5070185;28;20040;-63
2022/10/11 03:59:40;;;;;;;5.45;1.60;;;;;;;;;;5069600;28;20036;-63
2022/10/11 04:02:06;;;;;;;6.03;1.63;;;;;;;;;;5067136;28;20055;-63
2022/10/11 04:04:32;;;;;;;3.05;1.08;;;;;;;;;;5066961;28;20041;-63
2022/10/11 04:06:57;;;;;;;1.23;0.60;;;;;;;;;;5069488;28;20518;-63
2022/10/11 04:09:23;;;;;;;3.95;0.60;;;;;;;;;;5066971;28;20036;-63
2022/10/11 04:11:49;;;;;;;1.88;0.82;;;;;;;;;;5071706;28;20028;-63
2022/10/11 04:14:16;;;;;;;4.60;1.08;;;;;;;;;;5071834;28;20040;-63
2022/10/11 04:16:42;;;;;;;3.50;0.90;;;;;;;;;;5069820;28;20041;-63
2022/10/11 04:19:08;;;;;;;1.77;0.80;;;;;;;;;;5070882;28;20044;-63
2022/10/11 04:21:34;;;;;;;2.05;0.90;;;;;;;;;;5071196;28;20033;-63
2022/10/11 04:24:00;;;;;;;3.33;1.13;;;;;;;;;;5070461;28;20040;-64
2022/10/11 04:26:26;;;;;;;3.72;1.05;;;;;;;;;;5073719;28;20038;-63
2022/10/11 04:28:52;;;;;;;1.92;0.70;;;;;;;;;;5070819;28;20215;-63
2022/10/11 04:31:18;;;;;;;3.42;1.15;;;;;;;;;;5069927;28;20054;-63
2022/10/11 04:33:44;;;;;;;3.25;1.15;;;;;;;;;;5071681;28;20123;-63
2022/10/11 04:36:10;;;;;;;5.57;1.40;;;;;;;;;;5070519;28;20083;-64
2022/10/11 04:38:36;;;;;;;2.13;1.25;;;;;;;;;;5070779;28;20452;-62
2022/10/11 04:41:06;;;;;;;2.75;1.48;;;;;;;;;;5070466;28;20123;-63
2022/10/11 04:43:32;;;;;;;6.97;1.57;;;;;;;;;;5069928;28;20067;-62
2022/10/11 04:45:58;;;;;;;9.10;1.50;;;;;;;;;;5069284;28;20044;-62
2022/10/11 04:48:24;;;;;;;1.30;0.95;;;;;;;;;;5070691;28;20036;-64
2022/10/11 04:50:50;;;;;;;1.90;1.08;;;;;;;;;;5064143;28;20037;-62
2022/10/11 04:53:16;;;;;;;3.45;1.20;;;;;;;;;;5072172;28;20063;-62
2022/10/11 04:55:42;;;;;;;3.78;1.20;;;;;;;;;;5072537;28;20139;-62
2022/10/11 04:58:08;;;;;;;3.78;1.60;;;;;;;;;;5070284;28;20525;-63
2022/10/11 05:00:34;;;;;;;2.70;1.00;;;;;;;;;;5066324;28;20065;-63
2022/10/11 05:03:00;;;;;;;2.78;1.25;;;;;;;;;;5070577;28;20048;-63
2022/10/11 05:05:26;;;;;;;4.15;1.27;;;;;;;;;;5069412;28;20028;-63
2022/10/11 05:07:52;;;;;;;5.47;1.70;;;;;;;;;;5070933;28;20041;-63
2022/10/11 05:10:18;;;;;;;3.33;1.60;;;;;;;;;;5068853;28;20044;-63
2022/10/11 05:12:44;;;;;;;3.35;1.60;;;;;;;;;;5067796;28;20376;-63
2022/10/11 05:15:10;;;;;;;5.88;1.50;;;;;;;;;;5069096;28;20043;-63
2022/10/11 05:17:36;;;;;;;2.67;1.30;;;;;;;;;;5071567;28;20115;-63
2022/10/11 05:20:03;;;;;;;2.78;1.20;;;;;;;;;;5068752;28;20072;-61
2022/10/11 05:22:29;;;;;;;4.50;1.70;;;;;;;;;;5069379;28;20052;-63
2022/10/11 05:24:55;;;;;;;3.85;1.65;;;;;;;;;;5067229;28;20063;-63
2022/10/11 05:27:21;;;;;;;3.90;1.33;;;;;;;;;;5069548;28;20036;-63
2022/10/11 05:29:47;;;;;;;2.97;1.52;;;;;;;;;;5070299;28;20064;-63
2022/10/11 05:32:13;;;;;;;5.15;1.50;;;;;;;;;;5069852;28;20045;-63
2022/10/11 05:34:39;;;;;;;3.80;1.60;;;;;;;;;;5069453;28;20407;-62
2022/10/11 05:37:05;;;;;;;4.60;1.52;;;;;;;;;;5071510;28;20074;-63
2022/10/11 05:39:31;;;;;;;4.38;1.42;;;;;;;;;;5068916;28;20406;-63
2022/10/11 05:41:57;;;;;;;3.88;1.38;;;;;;;;;;5068439;28;20047;-62
2022/10/11 05:44:23;;;;;;;5.05;1.42;;;;;;;;;;5069419;28;20044;-62
2022/10/11 05:46:49;;;;;;;2.97;1.38;;;;;;;;;;5069134;28;20048;-63
2022/10/11 05:49:15;;;;;;;2.58;1.27;;;;;;;;;;5069799;28;20032;-63
2022/10/11 05:51:41;;;;;;;6.15;1.10;;;;;;;;;;5066058;28;20062;-63
2022/10/11 05:54:07;;;;;;;1.55;0.90;;;;;;;;;;5070377;28;20557;-63
2022/10/11 05:56:33;;;;;;;1.40;1.30;;;;;;;;;;5069318;28;20116;-63
2022/10/11 05:58:59;;;;;;;4.57;2.00;;;;;;;;;;5069977;28;20434;-63
2022/10/11 06:01:26;;;;;;;4.05;1.70;;;;;;;;;;5069929;28;20044;-61
2022/10/11 06:03:52;;;;;;;3.50;1.48;;;;;;;;;;5067690;28;20041;-63
2022/10/11 06:06:18;;;;;;;2.60;1.60;;;;;;;;;;5063839;28;20166;-62
2022/10/11 06:08:45;;;;;;;2.90;1.60;;;;;;;;;;5067291;28;20040;-62
2022/10/11 06:11:12;;;;;;;2.05;1.25;;;;;;;;;;5068135;28;20043;-63
2022/10/11 06:13:38;;;;;;;3.00;1.58;;;;;;;;;;5066463;28;20106;-62
2022/10/11 06:16:04;;;;;;;2.47;1.50;;;;;;;;;;5071269;28;20052;-63
2022/10/11 06:18:30;;;;;;;5.38;1.48;;;;;;;;;;5069402;28;20048;-62
2022/10/11 06:20:57;;;;;;;4.10;1.80;;;;;;;;;;5067224;28;20127;-62
2022/10/11 06:23:23;;;;;;;6.43;1.98;;;;;;;;;;5067176;28;20124;-62
2022/10/11 06:25:59;;;;;;;3.85;2.10;;;;;;;;;;5070611;28;20111;-62
2022/10/11 06:28:27;;;;;;;5.85;1.98;;;;;;;;;;5065820;28;20124;-63
2022/10/11 06:30:53;;;;;;;3.33;2.00;;;;;;;;;;5067530;28;20098;-62
2022/10/11 06:33:19;;;;;;;4.68;1.88;;;;;;;;;;5057868;28;20111;-63
2022/10/11 06:35:45;;;;;;;5.60;2.25;;;;;;;;;;5059293;28;20041;-62
2022/10/11 06:38:11;;;;;;;4.93;2.00;;;;;;;;;;5062922;28;20094;-62
2022/10/11 06:40:37;;;;;;;4.40;2.10;;;;;;;;;;5062746;28;20059;-62
2022/10/11 06:43:03;;;;;;;2.83;1.75;;;;;;;;;;5065872;28;20052;-63
2022/10/11 06:45:29;;;;;;;4.65;1.90;;;;;;;;;;5063844;28;20076;-62
2022/10/11 06:47:55;;;;;;;7.90;3.28;;;;;;;;;;5048596;28;20620;-62
2022/10/11 06:50:21;;;;;;;6.43;2.63;;;;;;;;;;5069970;28;20071;-62
2022/10/11 06:52:47;;;;;;;3.15;2.03;;;;;;;;;;5070107;28;20091;-62
2022/10/11 06:55:13;;;;;;;4.90;2.10;;;;;;;;;;5066678;28;20036;-62
2022/10/11 06:57:39;;;;;;;5.60;2.50;;;;;;;;;;5064663;28;20037;-63
2022/10/11 07:00:05;;;;;;;4.28;2.20;;;;;;;;;;5068368;28;20127;-63
2022/10/11 07:02:31;;;;;;;9.73;3.70;;;;;;;;;;5068579;28;20118;-63
2022/10/11 07:04:57;;;;;;;6.40;2.83;;;;;;;;;;5065857;28;20072;-62
2022/10/11 07:07:23;;;;;;;5.45;2.85;;;;;;;;;;5068164;28;20597;-62
2022/10/11 07:09:49;;;;;;;6.47;2.85;;;;;;;;;;5070080;28;20178;-63
2022/10/11 07:12:15;;;;;;;7.20;2.42;;;;;;;;;;5067617;28;20123;-62
2022/10/11 07:14:41;;;;;;;4.05;2.10;;;;;;;;;;5065938;28;20210;-63
2022/10/11 07:17:07;;;;;;;7.50;3.80;;;;;;;;;;5068356;28;20127;-62
2022/10/11 07:19:33;;;;;;;7.82;3.60;;;;;;;;;;5068884;28;20042;-63
2022/10/11 07:21:59;;;;;;;4.18;2.53;;;;;;;;;;5068386;28;20507;-61
2022/10/11 07:24:25;;;;;;;5.70;2.38;;;;;;;;;;5069912;28;20048;-61
2022/10/11 07:26:51;;;;;;;6.97;3.10;;;;;;;;;;5063977;28;20036;-63
2022/10/11 07:29:17;;;;;;;10.48;2.97;;;;;;;;;;5070146;28;20066;-63
2022/10/11 07:31:43;;;;;;;8.90;2.97;;;;;;;;;;5061934;28;20515;-63
2022/10/11 07:34:10;;;;;;;8.68;3.40;;;;;;;;;;5068882;28;20040;-62
2022/10/11 07:36:36;;;;;;;10.15;3.17;;;;;;;;;;5072269;28;20044;-63
2022/10/11 07:39:06;;;;;;;8.73;3.10;;;;;;;;;;5063318;28;20041;-63
2022/10/11 07:41:32;;;;;;;8.63;3.33;;;;;;;;;;5064298;28;20037;-63
2022/10/11 07:43:59;;;;;;;7.38;3.25;;;;;;;;;;5070798;28;20086;-63
2022/10/11 07:46:25;;;;;;;11.43;4.88;;;;;;;;;;5074135;28;20036;-62
2022/10/11 07:48:52;;;;;;;9.70;6.07;;;;;;;;;;5068551;28;20078;-63
2022/10/11 07:51:21;;;;;;;9.40;4.60;;;;;;;;;;5066688;28;20048;-63
2022/10/11 07:53:52;;;;;;;9.88;4.22;;;;;;;;;;5072350;28;20049;-62
2022/10/11 07:56:23;;;;;;;10.98;3.85;;;;;;;;;;5072068;28;20048;-62
2022/10/11 07:58:53;;;;;;;10.02;3.88;;;;;;;;;;5069051;28;20040;-63
2022/10/11 08:01:19;;;;;;;12.90;3.92;;;;;;;;;;5067419;28;20048;-63
2022/10/11 08:03:45;;;;;;;11.70;4.70;;;;;;;;;;5065627;28;20086;-63
2022/10/11 08:06:13;;;;;;;11.18;4.60;;;;;;;;;;5067480;28;20048;-63
2022/10/11 08:08:39;;;;;;;17.05;5.57;;;;;;;;;;5063961;28;20079;-62
2022/10/11 08:11:05;;;;;;;10.45;4.18;;;;;;;;;;5070815;28;20032;-63
2022/10/11 08:13:31;;;;;;;13.32;3.88;;;;;;;;;;5069396;28;20047;-63
2022/10/11 08:15:57;;;;;;;7.45;3.70;;;;;;;;;;5073631;28;20047;-64
2022/10/11 08:18:24;;;;;;;14.73;3.53;;;;;;;;;;5068537;28;20040;-63
2022/10/11 08:20:50;;;;;;;11.80;3.78;;;;;;;;;;5065450;28;20067;-63
2022/10/11 08:23:17;;;;;;;9.73;3.97;;;;;;;;;;5070816;28;20045;-63
2022/10/11 08:25:44;;;;;;;10.95;3.50;;;;;;;;;;5067907;28;20052;-62
2022/10/11 08:28:16;;;;;;;11.85;4.28;;;;;;;;;;5065319;28;20051;-63
2022/10/11 08:30:52;;;;;;;9.65;3.15;;;;;;;;;;5071476;28;20482;-63
2022/10/11 08:33:19;;;;;;;11.73;3.40;;;;;;;;;;5069265;28;20499;-63
2022/10/11 08:35:45;;;;;;;11.15;3.33;;;;;;;;;;5072832;28;20028;-62
2022/10/11 08:38:11;;;;;;;11.27;3.15;;;;;;;;;;5073891;28;20128;-63
2022/10/11 08:40:37;;;;;;;13.63;3.33;;;;;;;;;;5072527;28;20044;-63
2022/10/11 08:43:05;;;;;;;10.18;3.10;;;;;;;;;;5071224;28;20049;-63
2022/10/11 08:45:35;;;;;;;11.20;3.10;;;;;;;;;;5071432;28;20056;-63
2022/10/11 08:48:14;;;;;;;11.02;2.70;;;;;;;;;;5072622;28;20032;-62
2022/10/11 08:50:40;;;;;;;13.50;3.38;;;;;;;;;;5070680;28;20367;-63
2022/10/11 08:53:15;;;;;;;7.45;2.55;;;;;;;;;;5068185;28;20076;-62
2022/10/11 08:55:48;;;;;;;13.18;3.10;;;;;;;;;;5069434;28;20694;-63
2022/10/11 08:58:17;;;;;;;12.70;3.08;;;;;;;;;;5072417;28;20045;-63
2022/10/11 09:00:44;;;;;;;5.60;2.47;;;;;;;;;;5067496;28;20610;-63
2022/10/11 09:03:26;;;;;;;11.15;3.10;;;;;;;;;;5069763;28;20040;-63
2022/10/11 09:06:11;;;;;;;10.38;2.63;;;;;;;;;;5064400;28;20036;-63
2022/10/11 09:08:46;;;;;;;11.20;2.88;;;;;;;;;;5057265;28;20101;-63
2022/10/11 09:11:12;;;;;;;10.07;2.85;;;;;;;;;;5070643;28;20098;-62
2022/10/11 09:13:41;;;;;;;12.07;3.15;;;;;;;;;;5070636;28;20052;-64
2022/10/11 09:16:27;;;;;;;10.70;2.70;;;;;;;;;;5070521;28;20044;-63
2022/10/11 09:19:16;;;;;;;9.68;2.80;;;;;;;;;;5070403;28;20072;-63
2022/10/11 09:21:45;;;;;;;9.27;2.63;;;;;;;;;;5058407;28;20032;-63
2022/10/11 09:24:22;;;;;;;11.05;3.10;;;;;;;;;;5068008;28;20098;-63
2022/10/11 09:26:48;;;;;;;11.63;2.47;;;;;;;;;;5065824;28;20434;-63
2022/10/11 09:29:14;;;;;;;12.38;3.00;;;;;;;;;;5063730;28;20090;-63
2022/10/11 09:31:41;;;;;;;12.85;2.80;;;;;;;;;;5071165;28;20367;-63
2022/10/11 09:34:12;;;;;;;11.30;2.55;;;;;;;;;;5070703;28;20052;-62
2022/10/11 09:36:53;;;;;;;9.27;2.90;;;;;;;;;;5068651;28;20173;-62
2022/10/11 09:39:43;;;;;;;13.00;2.85;;;;;;;;;;5062520;28;20089;-62
2022/10/11 09:42:10;;;;;;;13.32;2.65;;;;;;;;;;5066639;28;20048;-62
2022/10/11 09:44:50;;;;;;;12.07;2.67;;;;;;;;;;5069178;28;20127;-62
2022/10/11 09:47:17;;;;;;;12.32;2.65;;;;;;;;;;5070492;28;20051;-62
2022/10/11 09:49:48;;;;;;;10.88;2.72;;;;;;;;;;5069159;28;20044;-62
2022/10/11 09:52:16;;;;;;;10.75;1.90;;;;;;;;;;5070294;28;20040;-62
2022/10/11 09:54:46;;;;;;;9.98;2.25;;;;;;;;;;5068212;28;20399;-62
2022/10/11 09:57:20;;;;;;;11.00;2.20;;;;;;;;;;5061646;28;20049;-62
2022/10/11 10:00:05;;;;;;;9.57;2.20;;;;;;;;;;5069352;28;20040;-62
2022/10/11 10:02:38;;;;;;;7.88;1.80;;;;;;;;;;5070727;28;20078;-63
2022/10/11 10:05:08;;;;;;;15.45;3.17;;;;;;;;;;5068636;28;20295;-62
2022/10/11 10:07:36;;;;;;;11.25;2.20;;;;;;;;;;5069600;28;20116;-62
2022/10/11 10:10:21;;;;;;;11.48;2.10;;;;;;;;;;5064538;28;20192;-62
2022/10/11 10:12:52;;;;;;;10.07;1.77;;;;;;;;;;5064532;28;20124;-62
2022/10/11 10:15:19;;;;;;;12.00;1.90;;;;;;;;;;5064243;28;20067;-63
2022/10/11 10:17:49;;;;;;;9.20;1.77;;;;;;;;;;5065369;28;20039;-62
2022/10/11 10:20:27;;;;;;;8.23;1.92;;;;;;;;;;5076938;28;20057;-62
2022/10/11 10:22:53;;;;;;;12.48;2.15;;;;;;;;;;5065344;28;20594;-63
2022/10/11 10:25:21;;;;;;;12.35;2.10;;;;;;;;;;5060991;28;20137;-63
2022/10/11 10:28:01;;;;;;;10.82;2.35;;;;;;;;;;5070156;28;20098;-62
2022/10/11 10:30:27;;;;;;;13.55;2.33;;;;;;;;;;5069103;28;20659;-63
2022/10/11 10:33:00;;;;;;;9.95;1.83;;;;;;;;;;5062465;28;20032;-63
2022/10/11 10:35:34;;;;;;;12.45;1.95;;;;;;;;;;5065154;28;20053;-62
2022/10/11 10:38:03;;;;;;;10.30;2.25;;;;;;;;;;5069565;28;20067;-63
2022/10/11 10:40:35;;;;;;;13.52;2.50;;;;;;;;;;5064299;28;20040;-63
2022/10/11 10:43:02;;;;;;;12.00;2.67;;;;;;;;;;5069008;28;20051;-63
2022/10/11 10:45:34;;;;;;;8.20;2.15;;;;;;;;;;5066582;28;20051;-62
2022/10/11 10:48:24;;;;;;;12.00;2.08;;;;;;;;;;5067808;28;20037;-63
2022/10/11 10:51:03;;;;;;;11.55;2.13;;;;;;;;;;5065166;28;20040;-63
2022/10/11 10:53:32;;;;;;;12.80;2.40;;;;;;;;;;5064884;28;20041;-63
2022/10/11 10:56:01;;;;;;;13.85;2.17;;;;;;;;;;5070916;28;20529;-63
2022/10/11 10:58:27;;;;;;;10.13;2.10;;;;;;;;;;5070295;28;20063;-63
2022/10/11 11:01:09;;;;;;;8.98;2.03;;;;;;;;;;5073854;28;20430;-63
2022/10/11 11:03:40;;;;;;;14.63;2.28;;;;;;;;;;5068202;28;20407;-63
2022/10/11 11:06:07;;;;;;;10.30;2.20;;;;;;;;;;5073385;28;20050;-64
2022/10/11 11:08:47;;;;;;;11.43;2.20;;;;;;;;;;5073613;28;20037;-63
2022/10/11 11:11:32;;;;;;;6.40;1.53;;;;;;;;;;5072228;28;20041;-63
2022/10/11 11:14:10;;;;;;;11.80;2.30;;;;;;;;;;5073388;28;20131;-63
2022/10/11 11:16:43;;;;;;;11.00;2.35;;;;;;;;;;5064890;28;20119;-63
2022/10/11 11:19:15;;;;;;;13.55;2.45;;;;;;;;;;5073076;28;20564;-63
2022/10/11 11:21:53;;;;;;;12.70;2.35;;;;;;;;;;5072385;28;20044;-62
2022/10/11 11:24:19;;;;;;;15.63;2.08;;;;;;;;;;5073457;28;20044;-63
2022/10/11 11:27:11;;;;;;;7.50;2.03;;;;;;;;;;5071398;28;20042;-63
2022/10/11 11:29:57;;;;;;;10.23;1.70;;;;;;;;;;5069473;28;20040;-62
2022/10/11 11:32:41;;;;;;;11.27;1.75;;;;;;;;;;5070380;28;20040;-63
2022/10/11 11:35:11;;;;;;;12.23;2.22;;;;;;;;;;5068922;28;20072;-62
2022/10/11 11:37:39;;;;;;;9.82;1.70;;;;;;;;;;5044559;28;20507;-62
2022/10/11 11:40:26;;;;;;;9.98;2.13;;;;;;;;;;5066362;28;20123;-63
2022/10/11 11:42:54;;;;;;;14.32;2.10;;;;;;;;;;5060746;28;20049;-62
2022/10/11 11:45:22;;;;;;;13.20;2.42;;;;;;;;;;5065013;28;20116;-63
2022/10/11 11:48:08;;;;;;;9.18;2.00;;;;;;;;;;5067627;28;20033;-63
2022/10/11 11:50:38;;;;;;;12.32;2.97;;;;;;;;;;5060403;28;20411;-62
2022/10/11 11:53:07;;;;;;;6.85;1.65;;;;;;;;;;5062207;28;20049;-62
2022/10/11 11:55:33;;;;;;;7.82;1.45;;;;;;;;;;5061679;28;20047;-62
2022/10/11 11:58:18;;;;;;;10.63;2.10;;;;;;;;;;5069936;28;20040;-62
2022/10/11 12:00:57;;;;;;;12.10;2.00;;;;;;;;;;5071409;28;20501;-62
2022/10/11 12:03:27;;;;;;;13.63;2.63;;;;;;;;;;5067261;28;20072;-62
2022/10/11 12:06:11;;;;;;;13.30;2.00;;;;;;;;;;5073541;28;20032;-62
2022/10/11 12:08:38;;;;;;;8.40;2.03;;;;;;;;;;5063550;28;20040;-62
2022/10/11 12:11:05;;;;;;;14.80;2.50;;;;;;;;;;5065401;28;20036;-62
2022/10/11 12:13:36;;;;;;;8.23;1.65;;;;;;;;;;5071543;28;20079;-62
2022/10/11 12:16:11;;;;;;;6.55;1.70;;;;;;;;;;5069222;28;20036;-62
2022/10/11 12:18:58;;;;;;;10.02;1.63;;;;;;;;;;5067099;28;20235;-62
2022/10/11 12:21:24;;;;;;;10.57;2.10;;;;;;;;;;5070313;28;20052;-61
2022/10/11 12:23:52;;;;;;;11.23;1.90;;;;;;;;;;5070002;28;20041;-62
2022/10/11 12:26:18;;;;;;;8.75;1.90;;;;;;;;;;5069874;28;20382;-62
2022/10/11 12:28:47;;;;;;;10.18;2.22;;;;;;;;;;5065875;28;20115;-62
2022/10/11 12:31:20;;;;;;;9.40;1.90;;;;;;;;;;5052479;28;20128;-62
2022/10/11 12:33:46;;;;;;;12.30;1.65;;;;;;;;;;5056821;28;20075;-62
2022/10/11 12:36:28;;;;;;;12.65;2.20;;;;;;;;;;5060190;28;20085;-63
2022/10/11 12:39:13;;;;;;;12.95;2.10;;;;;;;;;;5063746;28;20036;-63
2022/10/11 12:41:52;;;;;;;9.02;1.80;;;;;;;;;;5072454;28;20525;-63
2022/10/11 12:44:19;;;;;;;17.88;2.20;;;;;;;;;;5065898;28;20118;-63
2022/10/11 12:46:48;;;;;;;7.72;1.80;;;;;;;;;;5069623;28;20129;-62
2022/10/11 12:49:26;;;;;;;9.13;1.60;;;;;;;;;;5072210;28;20040;-62
2022/10/11 12:52:01;;;;;;;10.63;1.77;;;;;;;;;;5067457;28;20055;-63
2022/10/11 12:54:54;;;;;;;10.05;1.70;;;;;;;;;;5052945;28;20407;-63
2022/10/11 12:57:23;;;;;;;10.50;1.77;;;;;;;;;;5054359;28;20046;-62
2022/10/11 12:59:49;;;;;;;11.48;1.92;;;;;;;;;;5069954;28;20076;-62
2022/10/11 13:02:37;;;;;;;10.73;1.70;;;;;;;;;;5070728;28;20052;-63
2022/10/11 13:05:14;;;;;;;10.52;1.98;;;;;;;;;;5071016;28;20044;-63
2022/10/11 13:07:41;;;;;;;8.82;1.60;;;;;;;;;;5072003;28;20046;-62
2022/10/11 13:10:07;;;;;;;11.00;2.13;;;;;;;;;;5069614;28;20032;-62
2022/10/11 13:12:38;;;;;;;10.90;1.83;;;;;;;;;;5071772;28;20047;-63
2022/10/11 13:15:06;;;;;;;;;;;;;;;;;;5069902;28;20041;-62
2022/10/11 13:17:36;;;;;;;12.50;2.17;;;;;;;;;;5066587;28;20441;-63
2022/10/11 13:20:23;;;;;;;11.43;2.53;;;;;;;;;;5070906;28;20031;-62
2022/10/11 13:22:51;;;;;;;11.23;2.40;;;;;;;;;;5072290;28;20041;-63
2022/10/11 13:25:19;;;;;;;9.52;1.90;;;;;;;;;;5067194;28;20452;-63
2022/10/11 13:27:45;;;;;;;11.45;1.98;;;;;;;;;;5071573;28;20041;-63
2022/10/11 13:30:16;;;;;;;6.43;1.73;;;;;;;;;;5067941;28;20032;-63
2022/10/11 13:32:42;;;;;;;;;;;;;;;;;;5070901;28;20123;-63
2022/10/11 13:35:23;;;;;;;7.43;1.60;;;;;;;;;;5069664;28;19978;-63
2022/10/11 13:37:49;;;;;;;7.22;1.70;;;;;;;;;;5068044;28;20068;-63
2022/10/11 13:40:17;;;;;;;8.75;1.73;;;;;;;;;;5067454;28;20044;-63
2022/10/11 13:42:43;;;;;;;7.30;1.88;;;;;;;;;;5069914;28;20420;-63
2022/10/11 13:45:11;;;;;;;12.70;2.45;;;;;;;;;;5070139;28;20713;-63
2022/10/11 13:47:38;;;;;;;13.50;2.13;;;;;;;;;;5070497;28;20044;-62
2022/10/11 13:50:09;;;;;;;7.22;1.60;;;;;;;;;;5069890;28;20041;-63
2022/10/11 13:52:36;;;;;;;8.65;1.92;;;;;;;;;;5068820;28;20061;-62
2022/10/11 13:55:06;;;;;;;8.80;2.10;;;;;;;;;;5068352;28;20495;-62
2022/10/11 13:57:37;;;;;;;12.20;2.13;;;;;;;;;;5070608;28;20049;-63
2022/10/11 14:00:10;;;;;;;7.55;1.55;;;;;;;;;;5070760;28;20041;-62
2022/10/11 14:02:36;;;;;;;7.38;1.60;;;;;;;;;;5065390;28;20037;-62
2022/10/11 14:05:02;;;;;;;8.35;1.90;;;;;;;;;;5069467;28;20040;-62
2022/10/11 14:07:35;;;;;;;8.63;1.85;;;;;;;;;;5071126;28;20367;-63
2022/10/11 14:10:01;;;;;;;10.63;2.25;;;;;;;;;;5069360;28;20028;-62
2022/10/11 14:12:32;;;;;;;9.45;1.88;;;;;;;;;;5070187;28;20081;-63
2022/10/11 14:14:59;;;;;;;9.77;1.80;;;;;;;;;;5069981;28;20063;-62
2022/10/11 14:17:43;;;;;;;8.85;2.03;;;;;;;;;;5068374;28;20059;-62
2022/10/11 14:20:12;;;;;;;6.82;1.52;;;;;;;;;;5069334;28;20453;-62
2022/10/11 14:22:38;;;;;;;10.82;2.38;;;;;;;;;;5068904;28;20472;-62
2022/10/11 14:25:04;;;;;;;9.48;1.60;;;;;;;;;;5069791;28;20048;-62
2022/10/11 14:27:30;;;;;;;6.82;1.42;;;;;;;;;;5071273;28;20047;-62
2022/10/11 14:29:56;;;;;;;8.30;1.92;;;;;;;;;;5067958;28;20040;-62
2022/10/11 14:32:28;;;;;;;8.32;1.80;;;;;;;;;;5073706;28;20148;-62
2022/10/11 14:34:54;;;;;;;10.93;2.05;;;;;;;;;;5073555;28;20044;-62
2022/10/11 14:37:21;;;;;;;9.70;2.13;;;;;;;;;;5072837;28;20055;-63
2022/10/11 14:39:47;;;;;;;10.18;1.63;;;;;;;;;;5074696;28;20048;-63
2022/10/11 14:42:14;;;;;;;7.25;1.75;;;;;;;;;;5065773;28;20044;-63
2022/10/11 14:44:40;;;;;;;7.35;1.77;;;;;;;;;;5063364;28;20471;-62
2022/10/11 14:47:06;;;;;;;8.32;1.80;;;;;;;;;;5057671;28;20123;-62
2022/10/11 14:49:34;;;;;;;10.75;1.58;;;;;;;;;;5068670;28;20040;-63
2022/10/11 14:52:00;;;;;;;10.75;1.83;;;;;;;;;;5073625;28;20048;-62